sensor_id;sensor_type;location;lat;lon;timestamp;P1;durP1;ratioP1;P2;durP2;ratioP2
47113;SDS011;32867;51.556;6.832;2023-02-26T00:04:27;5.60;;;2.20;;
47113;SDS011;32867;51.556;6.832;2023-02-26T00:09:27;7.85;;;2.03;;
47113;SDS011;32867;51.556;6.832;2023-02-26T00:14:28;5.25;;;1.90;;
47113;SDS011;32867;51.556;6.832;2023-02-26T00:19:29;6.00;;;1.80;;
47113;SDS011;32867;51.556;6.832;2023-02-26T00:24:30;4.00;;;1.52;;
47113;SDS011;32867;51.556;6.832;2023-02-26T00:29:30;5.03;;;2.03;;
47113;SDS011;32867;51.556;6.832;2023-02-26T00:34:31;4.68;;;2.00;;
47113;SDS011;32867;51.556;6.832;2023-02-26T00:44:45;4.47;;;1.70;;
47113;SDS011;32867;51.556;6.832;2023-02-26T00:55:16;4.15;;;2.08;;
47113;SDS011;32867;51.556;6.832;2023-02-26T01:00:17;3.40;;;1.77;;
47113;SDS011;32867;51.556;6.832;2023-02-26T01:05:18;5.15;;;1.83;;
47113;SDS011;32867;51.556;6.832;2023-02-26T01:10:20;4.32;;;1.90;;
47113;SDS011;32867;51.556;6.832;2023-02-26T01:15:22;2.75;;;1.50;;
47113;SDS011;32867;51.556;6.832;2023-02-26T01:20:24;3.88;;;1.60;;
47113;SDS011;32867;51.556;6.832;2023-02-26T01:25:38;3.63;;;2.17;;
47113;SDS011;32867;51.556;6.832;2023-02-26T01:30:40;4.97;;;1.70;;
47113;SDS011;32867;51.556;6.832;2023-02-26T01:35:42;4.80;;;1.65;;
47113;SDS011;32867;51.556;6.832;2023-02-26T01:41:05;4.97;;;1.90;;
47113;SDS011;32867;51.556;6.832;2023-02-26T01:46:29;4.93;;;1.92;;
47113;SDS011;32867;51.556;6.832;2023-02-26T01:56:39;4.97;;;1.70;;
47113;SDS011;32867;51.556;6.832;2023-02-26T02:01:42;4.53;;;2.00;;
47113;SDS011;32867;51.556;6.832;2023-02-26T02:06:43;3.85;;;1.73;;
47113;SDS011;32867;51.556;6.832;2023-02-26T02:17:02;4.57;;;2.03;;
47113;SDS011;32867;51.556;6.832;2023-02-26T02:22:28;4.00;;;1.52;;
47113;SDS011;32867;51.556;6.832;2023-02-26T02:32:50;3.90;;;1.70;;
47113;SDS011;32867;51.556;6.832;2023-02-26T02:48:23;4.05;;;1.45;;
47113;SDS011;32867;51.556;6.832;2023-02-26T02:53:39;2.63;;;1.50;;
47113;SDS011;32867;51.556;6.832;2023-02-26T02:58:47;4.13;;;1.50;;
47113;SDS011;32867;51.556;6.832;2023-02-26T03:03:56;3.10;;;1.40;;
47113;SDS011;32867;51.556;6.832;2023-02-26T03:09:05;4.32;;;1.63;;
47113;SDS011;32867;51.556;6.832;2023-02-26T03:14:07;3.80;;;1.50;;
47113;SDS011;32867;51.556;6.832;2023-02-26T03:29:52;3.67;;;1.60;;
47113;SDS011;32867;51.556;6.832;2023-02-26T03:35:06;2.88;;;1.50;;
47113;SDS011;32867;51.556;6.832;2023-02-26T03:40:13;3.53;;;1.40;;
47113;SDS011;32867;51.556;6.832;2023-02-26T03:45:20;3.80;;;1.60;;
47113;SDS011;32867;51.556;6.832;2023-02-26T03:50:31;5.90;;;1.52;;
47113;SDS011;32867;51.556;6.832;2023-02-26T03:56:11;3.55;;;1.50;;
47113;SDS011;32867;51.556;6.832;2023-02-26T04:01:21;3.70;;;1.42;;
47113;SDS011;32867;51.556;6.832;2023-02-26T04:06:26;3.72;;;1.60;;
47113;SDS011;32867;51.556;6.832;2023-02-26T04:11:30;1.90;;;1.23;;
47113;SDS011;32867;51.556;6.832;2023-02-26T04:16:32;3.47;;;1.40;;
47113;SDS011;32867;51.556;6.832;2023-02-26T04:21:33;4.38;;;1.30;;
47113;SDS011;32867;51.556;6.832;2023-02-26T04:26:34;2.15;;;1.30;;
47113;SDS011;32867;51.556;6.832;2023-02-26T04:31:34;2.95;;;1.15;;
47113;SDS011;32867;51.556;6.832;2023-02-26T04:36:36;3.92;;;1.52;;
47113;SDS011;32867;51.556;6.832;2023-02-26T04:41:37;3.53;;;1.45;;
47113;SDS011;32867;51.556;6.832;2023-02-26T04:46:38;2.80;;;1.40;;
47113;SDS011;32867;51.556;6.832;2023-02-26T04:51:39;3.38;;;1.30;;
47113;SDS011;32867;51.556;6.832;2023-02-26T04:56:41;2.25;;;1.38;;
47113;SDS011;32867;51.556;6.832;2023-02-26T05:01:42;2.40;;;1.45;;
47113;SDS011;32867;51.556;6.832;2023-02-26T05:06:43;2.42;;;1.20;;
47113;SDS011;32867;51.556;6.832;2023-02-26T05:11:44;5.05;;;1.73;;
47113;SDS011;32867;51.556;6.832;2023-02-26T05:16:45;3.78;;;1.50;;
47113;SDS011;32867;51.556;6.832;2023-02-26T05:21:46;3.08;;;1.30;;
47113;SDS011;32867;51.556;6.832;2023-02-26T05:26:48;3.80;;;1.48;;
47113;SDS011;32867;51.556;6.832;2023-02-26T05:31:49;5.95;;;1.40;;
47113;SDS011;32867;51.556;6.832;2023-02-26T05:36:50;2.80;;;1.33;;
47113;SDS011;32867;51.556;6.832;2023-02-26T05:41:50;2.08;;;1.10;;
47113;SDS011;32867;51.556;6.832;2023-02-26T05:46:54;4.07;;;1.30;;
47113;SDS011;32867;51.556;6.832;2023-02-26T05:51:54;2.17;;;1.30;;
47113;SDS011;32867;51.556;6.832;2023-02-26T05:56:55;3.75;;;1.33;;
47113;SDS011;32867;51.556;6.832;2023-02-26T06:01:56;3.92;;;1.42;;
47113;SDS011;32867;51.556;6.832;2023-02-26T06:06:57;4.95;;;1.55;;
47113;SDS011;32867;51.556;6.832;2023-02-26T06:11:58;2.42;;;1.40;;
47113;SDS011;32867;51.556;6.832;2023-02-26T06:16:58;3.95;;;1.40;;
47113;SDS011;32867;51.556;6.832;2023-02-26T06:21:59;2.10;;;1.45;;
47113;SDS011;32867;51.556;6.832;2023-02-26T06:27:00;4.75;;;1.95;;
47113;SDS011;32867;51.556;6.832;2023-02-26T06:32:00;3.00;;;1.50;;
47113;SDS011;32867;51.556;6.832;2023-02-26T06:37:01;3.42;;;1.25;;
47113;SDS011;32867;51.556;6.832;2023-02-26T06:42:01;3.00;;;1.30;;
47113;SDS011;32867;51.556;6.832;2023-02-26T06:47:02;3.65;;;1.20;;
47113;SDS011;32867;51.556;6.832;2023-02-26T06:52:03;2.78;;;1.40;;
47113;SDS011;32867;51.556;6.832;2023-02-26T06:57:03;2.55;;;1.17;;
47113;SDS011;32867;51.556;6.832;2023-02-26T07:02:04;2.53;;;1.20;;
47113;SDS011;32867;51.556;6.832;2023-02-26T07:07:05;4.68;;;1.50;;
47113;SDS011;32867;51.556;6.832;2023-02-26T07:12:06;3.15;;;1.30;;
47113;SDS011;32867;51.556;6.832;2023-02-26T07:17:08;6.22;;;1.90;;
47113;SDS011;32867;51.556;6.832;2023-02-26T07:22:08;4.75;;;1.35;;
47113;SDS011;32867;51.556;6.832;2023-02-26T07:27:09;2.67;;;1.23;;
47113;SDS011;32867;51.556;6.832;2023-02-26T07:32:10;5.10;;;1.67;;
47113;SDS011;32867;51.556;6.832;2023-02-26T07:37:11;3.20;;;1.55;;
47113;SDS011;32867;51.556;6.832;2023-02-26T07:42:11;4.40;;;1.55;;
47113;SDS011;32867;51.556;6.832;2023-02-26T07:47:15;2.55;;;1.48;;
47113;SDS011;32867;51.556;6.832;2023-02-26T07:52:17;4.13;;;1.30;;
47113;SDS011;32867;51.556;6.832;2023-02-26T07:57:17;2.58;;;1.48;;
47113;SDS011;32867;51.556;6.832;2023-02-26T08:02:18;3.85;;;1.58;;
47113;SDS011;32867;51.556;6.832;2023-02-26T08:07:19;2.88;;;1.40;;
47113;SDS011;32867;51.556;6.832;2023-02-26T08:12:19;4.90;;;1.70;;
47113;SDS011;32867;51.556;6.832;2023-02-26T08:17:20;3.92;;;1.30;;
47113;SDS011;32867;51.556;6.832;2023-02-26T08:22:21;2.55;;;1.20;;
47113;SDS011;32867;51.556;6.832;2023-02-26T08:27:22;4.05;;;1.23;;
47113;SDS011;32867;51.556;6.832;2023-02-26T08:32:23;1.27;;;1.08;;
47113;SDS011;32867;51.556;6.832;2023-02-26T08:37:26;3.30;;;1.33;;
47113;SDS011;32867;51.556;6.832;2023-02-26T08:42:26;2.95;;;1.30;;
47113;SDS011;32867;51.556;6.832;2023-02-26T08:47:27;3.83;;;1.40;;
47113;SDS011;32867;51.556;6.832;2023-02-26T08:52:28;3.28;;;1.38;;
47113;SDS011;32867;51.556;6.832;2023-02-26T08:57:28;3.50;;;1.40;;
47113;SDS011;32867;51.556;6.832;2023-02-26T09:02:29;2.75;;;1.33;;
47113;SDS011;32867;51.556;6.832;2023-02-26T09:07:30;3.15;;;1.10;;
47113;SDS011;32867;51.556;6.832;2023-02-26T09:12:31;4.70;;;1.35;;
47113;SDS011;32867;51.556;6.832;2023-02-26T09:17:32;3.72;;;1.35;;
47113;SDS011;32867;51.556;6.832;2023-02-26T09:22:33;3.08;;;1.20;;
47113;SDS011;32867;51.556;6.832;2023-02-26T09:27:34;3.88;;;1.25;;
47113;SDS011;32867;51.556;6.832;2023-02-26T09:32:35;2.90;;;1.10;;
47113;SDS011;32867;51.556;6.832;2023-02-26T09:37:36;4.00;;;1.40;;
47113;SDS011;32867;51.556;6.832;2023-02-26T09:42:43;3.63;;;1.42;;
47113;SDS011;32867;51.556;6.832;2023-02-26T09:48:00;2.67;;;1.13;;
47113;SDS011;32867;51.556;6.832;2023-02-26T09:53:15;2.13;;;1.15;;
47113;SDS011;32867;51.556;6.832;2023-02-26T10:15:36;2.58;;;1.05;;
47113;SDS011;32867;51.556;6.832;2023-02-26T10:20:53;2.60;;;1.15;;
47113;SDS011;32867;51.556;6.832;2023-02-26T10:26:01;2.10;;;1.10;;
47113;SDS011;32867;51.556;6.832;2023-02-26T10:37:21;2.60;;;1.10;;
47113;SDS011;32867;51.556;6.832;2023-02-26T10:42:46;1.88;;;1.00;;
47113;SDS011;32867;51.556;6.832;2023-02-26T10:53:11;2.70;;;1.10;;
47113;SDS011;32867;51.556;6.832;2023-02-26T10:58:13;1.70;;;1.10;;
47113;SDS011;32867;51.556;6.832;2023-02-26T11:08:27;2.83;;;1.23;;
47113;SDS011;32867;51.556;6.832;2023-02-26T11:13:36;3.75;;;1.73;;
47113;SDS011;32867;51.556;6.832;2023-02-26T11:18:38;3.00;;;1.60;;
47113;SDS011;32867;51.556;6.832;2023-02-26T11:23:45;2.80;;;1.30;;
47113;SDS011;32867;51.556;6.832;2023-02-26T11:28:48;2.63;;;1.08;;
47113;SDS011;32867;51.556;6.832;2023-02-26T11:34:01;2.00;;;1.05;;
47113;SDS011;32867;51.556;6.832;2023-02-26T11:39:06;2.33;;;1.00;;
47113;SDS011;32867;51.556;6.832;2023-02-26T11:44:14;3.20;;;1.10;;
47113;SDS011;32867;51.556;6.832;2023-02-26T11:49:18;1.42;;;0.98;;
47113;SDS011;32867;51.556;6.832;2023-02-26T11:54:23;3.05;;;1.08;;
47113;SDS011;32867;51.556;6.832;2023-02-26T11:59:26;3.63;;;1.20;;
47113;SDS011;32867;51.556;6.832;2023-02-26T12:04:30;1.77;;;0.82;;
47113;SDS011;32867;51.556;6.832;2023-02-26T12:09:31;2.63;;;1.10;;
47113;SDS011;32867;51.556;6.832;2023-02-26T12:14:41;1.95;;;1.13;;
47113;SDS011;32867;51.556;6.832;2023-02-26T12:25:49;2.53;;;1.00;;
47113;SDS011;32867;51.556;6.832;2023-02-26T12:41:26;1.42;;;1.00;;
47113;SDS011;32867;51.556;6.832;2023-02-26T12:46:46;3.63;;;1.10;;
47113;SDS011;32867;51.556;6.832;2023-02-26T13:18:45;2.05;;;1.00;;
47113;SDS011;32867;51.556;6.832;2023-02-26T13:29:12;2.22;;;0.90;;
47113;SDS011;32867;51.556;6.832;2023-02-26T13:34:22;2.50;;;1.52;;
47113;SDS011;32867;51.556;6.832;2023-02-26T13:39:40;2.60;;;1.00;;
47113;SDS011;32867;51.556;6.832;2023-02-26T13:50:03;3.25;;;0.93;;
47113;SDS011;32867;51.556;6.832;2023-02-26T13:55:40;2.75;;;1.00;;
47113;SDS011;32867;51.556;6.832;2023-02-26T14:00:45;1.77;;;0.70;;
47113;SDS011;32867;51.556;6.832;2023-02-26T14:11:32;1.70;;;0.70;;
47113;SDS011;32867;51.556;6.832;2023-02-26T14:16:38;3.33;;;1.20;;
47113;SDS011;32867;51.556;6.832;2023-02-26T14:21:53;1.55;;;0.65;;
47113;SDS011;32867;51.556;6.832;2023-02-26T14:27:43;2.42;;;1.10;;
47113;SDS011;32867;51.556;6.832;2023-02-26T14:32:25;1.65;;;1.02;;
47113;SDS011;32867;51.556;6.832;2023-02-26T14:37:29;3.20;;;1.00;;
47113;SDS011;32867;51.556;6.832;2023-02-26T14:42:33;1.33;;;0.90;;
47113;SDS011;32867;51.556;6.832;2023-02-26T14:47:37;2.35;;;1.00;;
47113;SDS011;32867;51.556;6.832;2023-02-26T15:14:17;1.92;;;0.95;;
47113;SDS011;32867;51.556;6.832;2023-02-26T15:19:39;1.75;;;0.90;;
47113;SDS011;32867;51.556;6.832;2023-02-26T15:24:41;2.08;;;1.30;;
47113;SDS011;32867;51.556;6.832;2023-02-26T15:29:42;3.35;;;1.17;;
47113;SDS011;32867;51.556;6.832;2023-02-26T15:34:44;2.33;;;1.05;;
47113;SDS011;32867;51.556;6.832;2023-02-26T15:39:49;2.03;;;1.10;;
47113;SDS011;32867;51.556;6.832;2023-02-26T15:44:51;2.58;;;1.00;;
47113;SDS011;32867;51.556;6.832;2023-02-26T15:49:54;1.30;;;0.80;;
47113;SDS011;32867;51.556;6.832;2023-02-26T15:54:56;3.15;;;1.23;;
47113;SDS011;32867;51.556;6.832;2023-02-26T16:00:01;3.10;;;1.23;;
47113;SDS011;32867;51.556;6.832;2023-02-26T16:05:12;1.92;;;1.00;;
47113;SDS011;32867;51.556;6.832;2023-02-26T16:10:25;1.85;;;1.00;;
47113;SDS011;32867;51.556;6.832;2023-02-26T16:15:36;3.60;;;1.15;;
47113;SDS011;32867;51.556;6.832;2023-02-26T16:20:42;1.70;;;0.95;;
47113;SDS011;32867;51.556;6.832;2023-02-26T16:25:49;2.58;;;1.10;;
47113;SDS011;32867;51.556;6.832;2023-02-26T16:30:58;2.00;;;1.00;;
47113;SDS011;32867;51.556;6.832;2023-02-26T16:36:11;2.83;;;0.90;;
47113;SDS011;32867;51.556;6.832;2023-02-26T16:41:14;2.42;;;1.10;;
47113;SDS011;32867;51.556;6.832;2023-02-26T16:51:35;1.30;;;1.00;;
47113;SDS011;32867;51.556;6.832;2023-02-26T16:56:39;4.10;;;1.42;;
47113;SDS011;32867;51.556;6.832;2023-02-26T17:06:53;2.85;;;1.23;;
47113;SDS011;32867;51.556;6.832;2023-02-26T17:13:00;4.72;;;1.30;;
47113;SDS011;32867;51.556;6.832;2023-02-26T17:17:41;2.65;;;1.55;;
47113;SDS011;32867;51.556;6.832;2023-02-26T17:22:42;2.97;;;1.65;;
47113;SDS011;32867;51.556;6.832;2023-02-26T17:27:44;2.72;;;1.65;;
47113;SDS011;32867;51.556;6.832;2023-02-26T17:32:45;2.75;;;1.40;;
47113;SDS011;32867;51.556;6.832;2023-02-26T17:37:45;1.67;;;1.20;;
47113;SDS011;32867;51.556;6.832;2023-02-26T17:42:46;1.75;;;1.10;;
47113;SDS011;32867;51.556;6.832;2023-02-26T17:47:47;2.55;;;1.40;;
47113;SDS011;32867;51.556;6.832;2023-02-26T17:52:49;3.60;;;1.30;;
47113;SDS011;32867;51.556;6.832;2023-02-26T17:57:49;3.63;;;1.42;;
47113;SDS011;32867;51.556;6.832;2023-02-26T18:02:50;4.88;;;3.00;;
47113;SDS011;32867;51.556;6.832;2023-02-26T18:07:51;3.15;;;1.90;;
47113;SDS011;32867;51.556;6.832;2023-02-26T18:12:52;3.50;;;1.60;;
47113;SDS011;32867;51.556;6.832;2023-02-26T18:17:53;2.83;;;1.60;;
47113;SDS011;32867;51.556;6.832;2023-02-26T18:22:53;6.20;;;3.83;;
47113;SDS011;32867;51.556;6.832;2023-02-26T18:27:54;5.32;;;3.38;;
47113;SDS011;32867;51.556;6.832;2023-02-26T18:33:01;3.30;;;2.08;;
47113;SDS011;32867;51.556;6.832;2023-02-26T18:38:02;3.58;;;1.50;;
47113;SDS011;32867;51.556;6.832;2023-02-26T18:43:03;2.83;;;1.40;;
47113;SDS011;32867;51.556;6.832;2023-02-26T18:48:04;1.35;;;1.13;;
47113;SDS011;32867;51.556;6.832;2023-02-26T18:53:05;2.38;;;1.25;;
47113;SDS011;32867;51.556;6.832;2023-02-26T18:58:06;1.65;;;1.15;;
47113;SDS011;32867;51.556;6.832;2023-02-26T19:03:06;2.58;;;1.10;;
47113;SDS011;32867;51.556;6.832;2023-02-26T19:08:08;2.17;;;1.13;;
47113;SDS011;32867;51.556;6.832;2023-02-26T19:13:09;3.08;;;1.35;;
47113;SDS011;32867;51.556;6.832;2023-02-26T19:18:10;2.30;;;1.30;;
47113;SDS011;32867;51.556;6.832;2023-02-26T19:23:11;5.63;;;2.72;;
47113;SDS011;32867;51.556;6.832;2023-02-26T19:28:11;5.47;;;3.30;;
47113;SDS011;32867;51.556;6.832;2023-02-26T19:33:12;2.80;;;1.70;;
47113;SDS011;32867;51.556;6.832;2023-02-26T19:38:13;2.40;;;1.50;;
47113;SDS011;32867;51.556;6.832;2023-02-26T19:43:13;3.30;;;1.40;;
47113;SDS011;32867;51.556;6.832;2023-02-26T19:48:14;2.40;;;1.23;;
47113;SDS011;32867;51.556;6.832;2023-02-26T19:53:15;2.15;;;1.13;;
47113;SDS011;32867;51.556;6.832;2023-02-26T19:58:16;3.40;;;1.38;;
47113;SDS011;32867;51.556;6.832;2023-02-26T20:03:18;3.03;;;1.40;;
47113;SDS011;32867;51.556;6.832;2023-02-26T20:08:19;3.40;;;1.30;;
47113;SDS011;32867;51.556;6.832;2023-02-26T20:13:22;1.83;;;1.20;;
47113;SDS011;32867;51.556;6.832;2023-02-26T20:18:29;2.47;;;1.42;;
47113;SDS011;32867;51.556;6.832;2023-02-26T20:23:30;2.65;;;1.70;;
47113;SDS011;32867;51.556;6.832;2023-02-26T20:28:36;1.92;;;1.30;;
47113;SDS011;32867;51.556;6.832;2023-02-26T20:33:37;2.35;;;1.30;;
47113;SDS011;32867;51.556;6.832;2023-02-26T20:38:38;2.22;;;1.30;;
47113;SDS011;32867;51.556;6.832;2023-02-26T20:43:39;3.47;;;1.50;;
47113;SDS011;32867;51.556;6.832;2023-02-26T20:48:40;4.53;;;1.50;;
47113;SDS011;32867;51.556;6.832;2023-02-26T20:53:42;5.30;;;2.50;;
47113;SDS011;32867;51.556;6.832;2023-02-26T20:58:44;9.55;;;4.30;;
47113;SDS011;32867;51.556;6.832;2023-02-26T21:03:46;10.25;;;5.40;;
47113;SDS011;32867;51.556;6.832;2023-02-26T21:08:47;9.30;;;3.25;;
47113;SDS011;32867;51.556;6.832;2023-02-26T21:13:47;14.27;;;6.30;;
47113;SDS011;32867;51.556;6.832;2023-02-26T21:18:48;10.07;;;5.78;;
47113;SDS011;32867;51.556;6.832;2023-02-26T21:23:49;6.38;;;3.72;;
47113;SDS011;32867;51.556;6.832;2023-02-26T21:28:52;6.22;;;2.28;;
47113;SDS011;32867;51.556;6.832;2023-02-26T21:33:52;2.90;;;1.60;;
47113;SDS011;32867;51.556;6.832;2023-02-26T21:38:53;6.47;;;3.03;;
47113;SDS011;32867;51.556;6.832;2023-02-26T21:43:53;23.83;;;10.10;;
47113;SDS011;32867;51.556;6.832;2023-02-26T21:48:54;14.00;;;6.25;;
47113;SDS011;32867;51.556;6.832;2023-02-26T21:53:55;11.80;;;5.18;;
47113;SDS011;32867;51.556;6.832;2023-02-26T21:58:55;4.35;;;2.00;;
47113;SDS011;32867;51.556;6.832;2023-02-26T22:03:56;2.70;;;1.55;;
47113;SDS011;32867;51.556;6.832;2023-02-26T22:08:57;2.97;;;1.60;;
47113;SDS011;32867;51.556;6.832;2023-02-26T22:13:57;3.15;;;1.85;;
47113;SDS011;32867;51.556;6.832;2023-02-26T22:18:58;3.75;;;1.75;;
47113;SDS011;32867;51.556;6.832;2023-02-26T22:23:59;3.55;;;1.50;;
47113;SDS011;32867;51.556;6.832;2023-02-26T22:29:02;2.45;;;1.50;;
47113;SDS011;32867;51.556;6.832;2023-02-26T22:34:03;3.45;;;1.52;;
47113;SDS011;32867;51.556;6.832;2023-02-26T22:39:03;2.83;;;1.67;;
47113;SDS011;32867;51.556;6.832;2023-02-26T22:44:05;2.90;;;1.45;;
47113;SDS011;32867;51.556;6.832;2023-02-26T22:49:06;3.20;;;1.50;;
47113;SDS011;32867;51.556;6.832;2023-02-26T22:54:06;3.33;;;1.83;;
47113;SDS011;32867;51.556;6.832;2023-02-26T22:59:07;3.10;;;1.52;;
47113;SDS011;32867;51.556;6.832;2023-02-26T23:04:08;4.07;;;1.77;;
47113;SDS011;32867;51.556;6.832;2023-02-26T23:09:08;2.85;;;1.52;;
47113;SDS011;32867;51.556;6.832;2023-02-26T23:14:09;4.22;;;1.63;;
47113;SDS011;32867;51.556;6.832;2023-02-26T23:19:10;3.88;;;1.45;;
47113;SDS011;32867;51.556;6.832;2023-02-26T23:24:11;3.80;;;1.83;;
47113;SDS011;32867;51.556;6.832;2023-02-26T23:29:12;3.13;;;1.63;;
47113;SDS011;32867;51.556;6.832;2023-02-26T23:34:12;3.70;;;1.70;;
47113;SDS011;32867;51.556;6.832;2023-02-26T23:39:13;3.45;;;1.73;;
47113;SDS011;32867;51.556;6.832;2023-02-26T23:44:14;4.50;;;1.80;;
47113;SDS011;32867;51.556;6.832;2023-02-26T23:49:15;3.95;;;1.90;;
47113;SDS011;32867;51.556;6.832;2023-02-26T23:54:16;5.20;;;1.75;;
47113;SDS011;32867;51.556;6.832;2023-02-26T23:59:16;4.25;;;1.77;;
